sensor_id;sensor_type;location;lat;lon;timestamp;temperature;humidity
80426;DHT22;69766;51.476;5.704;2023-09-18T00:01:18;18.30;99.90
80426;DHT22;69766;51.476;5.704;2023-09-18T00:03:51;18.40;99.90
80426;DHT22;69766;51.476;5.704;2023-09-18T00:06:19;18.30;99.90
80426;DHT22;69766;51.476;5.704;2023-09-18T00:09:04;18.40;99.90
80426;DHT22;69766;51.476;5.704;2023-09-18T00:11:30;18.30;99.90
80426;DHT22;69766;51.476;5.704;2023-09-18T00:13:56;18.40;99.90
80426;DHT22;69766;51.476;5.704;2023-09-18T00:16:21;18.30;99.90
80426;DHT22;69766;51.476;5.704;2023-09-18T00:18:47;18.30;99.90
80426;DHT22;69766;51.476;5.704;2023-09-18T00:21:13;18.30;99.90
80426;DHT22;69766;51.476;5.704;2023-09-18T00:23:38;18.30;99.90
80426;DHT22;69766;51.476;5.704;2023-09-18T00:26:04;18.30;99.90
80426;DHT22;69766;51.476;5.704;2023-09-18T00:28:30;18.40;99.90
80426;DHT22;69766;51.476;5.704;2023-09-18T00:30:56;18.30;99.90
80426;DHT22;69766;51.476;5.704;2023-09-18T00:33:22;18.30;99.90
80426;DHT22;69766;51.476;5.704;2023-09-18T00:35:58;18.30;99.90
80426;DHT22;69766;51.476;5.704;2023-09-18T00:38:24;18.30;99.90
80426;DHT22;69766;51.476;5.704;2023-09-18T00:40:50;18.30;99.90
80426;DHT22;69766;51.476;5.704;2023-09-18T00:43:16;18.40;99.90
80426;DHT22;69766;51.476;5.704;2023-09-18T00:45:45;18.30;99.90
80426;DHT22;69766;51.476;5.704;2023-09-18T00:48:12;18.40;99.90
80426;DHT22;69766;51.476;5.704;2023-09-18T00:50:44;18.30;99.90
80426;DHT22;69766;51.476;5.704;2023-09-18T00:53:18;18.30;99.90
80426;DHT22;69766;51.476;5.704;2023-09-18T00:55:45;18.30;99.90
80426;DHT22;69766;51.476;5.704;2023-09-18T00:58:11;18.30;99.90
80426;DHT22;69766;51.476;5.704;2023-09-18T01:00:50;18.40;99.90
80426;DHT22;69766;51.476;5.704;2023-09-18T01:03:19;18.40;99.90
80426;DHT22;69766;51.476;5.704;2023-09-18T01:05:46;18.40;99.90
80426;DHT22;69766;51.476;5.704;2023-09-18T01:08:12;18.40;99.90
80426;DHT22;69766;51.476;5.704;2023-09-18T01:11:05;18.30;99.90
80426;DHT22;69766;51.476;5.704;2023-09-18T01:13:41;18.50;99.90
80426;DHT22;69766;51.476;5.704;2023-09-18T01:16:22;18.50;99.90
80426;DHT22;69766;51.476;5.704;2023-09-18T01:18:50;18.50;99.90
80426;DHT22;69766;51.476;5.704;2023-09-18T01:21:21;18.50;99.90
80426;DHT22;69766;51.476;5.704;2023-09-18T01:23:52;18.50;99.90
80426;DHT22;69766;51.476;5.704;2023-09-18T01:26:18;18.50;99.90
80426;DHT22;69766;51.476;5.704;2023-09-18T01:28:44;18.50;99.90
80426;DHT22;69766;51.476;5.704;2023-09-18T01:31:13;18.50;99.90
80426;DHT22;69766;51.476;5.704;2023-09-18T01:33:48;18.50;99.90
80426;DHT22;69766;51.476;5.704;2023-09-18T01:36:24;18.60;99.90
80426;DHT22;69766;51.476;5.704;2023-09-18T01:39:08;18.50;99.90
80426;DHT22;69766;51.476;5.704;2023-09-18T01:41:36;18.60;99.90
80426;DHT22;69766;51.476;5.704;2023-09-18T01:44:02;18.60;99.90
80426;DHT22;69766;51.476;5.704;2023-09-18T01:46:30;18.60;99.90
80426;DHT22;69766;51.476;5.704;2023-09-18T01:49:10;18.60;99.90
80426;DHT22;69766;51.476;5.704;2023-09-18T01:51:38;18.70;99.90
80426;DHT22;69766;51.476;5.704;2023-09-18T01:54:07;18.60;99.90
80426;DHT22;69766;51.476;5.704;2023-09-18T01:56:33;18.70;99.90
80426;DHT22;69766;51.476;5.704;2023-09-18T01:59:02;18.70;99.90
80426;DHT22;69766;51.476;5.704;2023-09-18T02:01:33;18.70;99.90
80426;DHT22;69766;51.476;5.704;2023-09-18T02:04:00;18.60;99.90
80426;DHT22;69766;51.476;5.704;2023-09-18T02:06:28;18.60;99.90
80426;DHT22;69766;51.476;5.704;2023-09-18T02:08:57;18.60;99.90
80426;DHT22;69766;51.476;5.704;2023-09-18T02:11:49;18.70;99.90
80426;DHT22;69766;51.476;5.704;2023-09-18T02:14:17;18.70;99.90
80426;DHT22;69766;51.476;5.704;2023-09-18T02:16:43;18.70;99.90
80426;DHT22;69766;51.476;5.704;2023-09-18T02:19:17;18.70;99.90
80426;DHT22;69766;51.476;5.704;2023-09-18T02:21:45;18.70;99.90
80426;DHT22;69766;51.476;5.704;2023-09-18T02:24:17;18.70;99.90
80426;DHT22;69766;51.476;5.704;2023-09-18T02:26:43;18.60;99.90
80426;DHT22;69766;51.476;5.704;2023-09-18T02:29:10;18.60;99.90
80426;DHT22;69766;51.476;5.704;2023-09-18T02:31:39;18.60;99.90
80426;DHT22;69766;51.476;5.704;2023-09-18T02:34:08;18.60;99.90
80426;DHT22;69766;51.476;5.704;2023-09-18T02:36:44;18.60;99.90
80426;DHT22;69766;51.476;5.704;2023-09-18T02:39:10;18.70;99.90
80426;DHT22;69766;51.476;5.704;2023-09-18T02:41:38;18.60;99.90
80426;DHT22;69766;51.476;5.704;2023-09-18T02:44:06;18.60;99.90
80426;DHT22;69766;51.476;5.704;2023-09-18T02:46:32;18.60;99.90
80426;DHT22;69766;51.476;5.704;2023-09-18T02:48:58;18.60;99.90
80426;DHT22;69766;51.476;5.704;2023-09-18T02:51:27;18.70;99.90
80426;DHT22;69766;51.476;5.704;2023-09-18T02:53:53;18.60;99.90
80426;DHT22;69766;51.476;5.704;2023-09-18T02:56:26;18.70;99.90
80426;DHT22;69766;51.476;5.704;2023-09-18T02:58:54;18.80;99.90
80426;DHT22;69766;51.476;5.704;2023-09-18T03:01:20;18.90;99.90
80426;DHT22;69766;51.476;5.704;2023-09-18T03:03:46;18.90;99.90
80426;DHT22;69766;51.476;5.704;2023-09-18T03:06:15;18.90;99.90
80426;DHT22;69766;51.476;5.704;2023-09-18T03:08:43;19.00;99.90
80426;DHT22;69766;51.476;5.704;2023-09-18T03:11:12;19.10;99.90
80426;DHT22;69766;51.476;5.704;2023-09-18T03:13:43;19.20;99.90
80426;DHT22;69766;51.476;5.704;2023-09-18T03:16:12;19.10;99.90
80426;DHT22;69766;51.476;5.704;2023-09-18T03:18:39;19.20;99.90
80426;DHT22;69766;51.476;5.704;2023-09-18T03:21:10;19.00;99.90
80426;DHT22;69766;51.476;5.704;2023-09-18T03:23:40;18.90;99.90
80426;DHT22;69766;51.476;5.704;2023-09-18T03:26:06;18.90;99.90
80426;DHT22;69766;51.476;5.704;2023-09-18T03:28:32;19.00;99.90
80426;DHT22;69766;51.476;5.704;2023-09-18T03:30:58;19.10;99.90
80426;DHT22;69766;51.476;5.704;2023-09-18T03:33:26;19.20;99.90
80426;DHT22;69766;51.476;5.704;2023-09-18T03:35:52;19.40;99.90
80426;DHT22;69766;51.476;5.704;2023-09-18T03:38:20;19.60;99.90
80426;DHT22;69766;51.476;5.704;2023-09-18T03:40:46;19.60;99.90
80426;DHT22;69766;51.476;5.704;2023-09-18T03:43:12;19.80;99.90
80426;DHT22;69766;51.476;5.704;2023-09-18T03:45:40;19.90;99.90
80426;DHT22;69766;51.476;5.704;2023-09-18T03:48:13;19.80;99.90
80426;DHT22;69766;51.476;5.704;2023-09-18T03:50:42;19.80;99.90
80426;DHT22;69766;51.476;5.704;2023-09-18T03:53:10;19.70;99.90
80426;DHT22;69766;51.476;5.704;2023-09-18T03:55:36;19.80;99.90
80426;DHT22;69766;51.476;5.704;2023-09-18T03:58:05;19.90;99.90
80426;DHT22;69766;51.476;5.704;2023-09-18T04:00:31;20.00;99.90
80426;DHT22;69766;51.476;5.704;2023-09-18T04:02:57;20.00;99.90
80426;DHT22;69766;51.476;5.704;2023-09-18T04:05:26;20.00;99.90
80426;DHT22;69766;51.476;5.704;2023-09-18T04:07:59;20.00;99.90
80426;DHT22;69766;51.476;5.704;2023-09-18T04:10:26;20.00;99.90
80426;DHT22;69766;51.476;5.704;2023-09-18T04:12:54;20.00;99.90
80426;DHT22;69766;51.476;5.704;2023-09-18T04:15:20;19.90;99.90
80426;DHT22;69766;51.476;5.704;2023-09-18T04:17:53;19.90;99.90
80426;DHT22;69766;51.476;5.704;2023-09-18T04:20:19;20.00;99.90
80426;DHT22;69766;51.476;5.704;2023-09-18T04:22:47;20.00;99.90
80426;DHT22;69766;51.476;5.704;2023-09-18T04:25:18;20.10;99.90
80426;DHT22;69766;51.476;5.704;2023-09-18T04:27:53;20.10;99.90
80426;DHT22;69766;51.476;5.704;2023-09-18T04:30:22;20.00;99.90
80426;DHT22;69766;51.476;5.704;2023-09-18T04:32:48;20.10;99.90
80426;DHT22;69766;51.476;5.704;2023-09-18T04:35:14;20.00;99.90
80426;DHT22;69766;51.476;5.704;2023-09-18T04:37:39;19.90;99.90
80426;DHT22;69766;51.476;5.704;2023-09-18T04:40:06;20.00;99.90
80426;DHT22;69766;51.476;5.704;2023-09-18T04:42:37;20.00;99.90
80426;DHT22;69766;51.476;5.704;2023-09-18T04:45:12;20.00;99.90
80426;DHT22;69766;51.476;5.704;2023-09-18T04:47:38;20.00;99.90
80426;DHT22;69766;51.476;5.704;2023-09-18T04:50:16;20.00;99.90
80426;DHT22;69766;51.476;5.704;2023-09-18T04:52:42;20.10;99.90
80426;DHT22;69766;51.476;5.704;2023-09-18T04:55:17;20.20;99.90
80426;DHT22;69766;51.476;5.704;2023-09-18T04:57:47;20.10;99.90
80426;DHT22;69766;51.476;5.704;2023-09-18T05:00:15;20.20;99.90
80426;DHT22;69766;51.476;5.704;2023-09-18T05:02:44;20.10;99.90
80426;DHT22;69766;51.476;5.704;2023-09-18T05:05:10;20.20;99.90
80426;DHT22;69766;51.476;5.704;2023-09-18T05:07:39;20.10;99.90
80426;DHT22;69766;51.476;5.704;2023-09-18T05:10:10;20.00;99.90
80426;DHT22;69766;51.476;5.704;2023-09-18T05:12:48;20.00;99.90
80426;DHT22;69766;51.476;5.704;2023-09-18T05:15:16;20.00;99.90
80426;DHT22;69766;51.476;5.704;2023-09-18T05:17:44;19.90;99.90
80426;DHT22;69766;51.476;5.704;2023-09-18T05:20:19;19.90;99.90
80426;DHT22;69766;51.476;5.704;2023-09-18T05:22:45;19.90;99.90
80426;DHT22;69766;51.476;5.704;2023-09-18T05:25:11;19.80;99.90
80426;DHT22;69766;51.476;5.704;2023-09-18T05:27:38;19.70;99.90
80426;DHT22;69766;51.476;5.704;2023-09-18T05:30:28;19.70;99.90
80426;DHT22;69766;51.476;5.704;2023-09-18T05:35:57;19.60;99.90
80426;DHT22;69766;51.476;5.704;2023-09-18T05:38:31;19.60;99.90
80426;DHT22;69766;51.476;5.704;2023-09-18T05:41:02;19.60;99.90
80426;DHT22;69766;51.476;5.704;2023-09-18T05:43:33;19.50;99.90
80426;DHT22;69766;51.476;5.704;2023-09-18T05:46:01;19.50;99.90
80426;DHT22;69766;51.476;5.704;2023-09-18T05:48:30;19.50;99.90
80426;DHT22;69766;51.476;5.704;2023-09-18T05:50:59;19.40;99.90
80426;DHT22;69766;51.476;5.704;2023-09-18T05:53:24;19.50;99.90
80426;DHT22;69766;51.476;5.704;2023-09-18T05:56:01;19.60;99.90
80426;DHT22;69766;51.476;5.704;2023-09-18T05:58:34;19.60;99.90
80426;DHT22;69766;51.476;5.704;2023-09-18T06:01:06;19.50;99.90
80426;DHT22;69766;51.476;5.704;2023-09-18T06:03:33;19.60;99.90
80426;DHT22;69766;51.476;5.704;2023-09-18T06:06:05;19.60;99.90
80426;DHT22;69766;51.476;5.704;2023-09-18T06:08:44;19.70;99.90
80426;DHT22;69766;51.476;5.704;2023-09-18T06:11:24;19.70;99.90
80426;DHT22;69766;51.476;5.704;2023-09-18T06:13:50;19.70;99.90
80426;DHT22;69766;51.476;5.704;2023-09-18T06:16:21;19.70;99.90
80426;DHT22;69766;51.476;5.704;2023-09-18T06:18:56;19.70;99.90
80426;DHT22;69766;51.476;5.704;2023-09-18T06:21:25;19.60;99.90
80426;DHT22;69766;51.476;5.704;2023-09-18T06:23:53;19.60;99.90
80426;DHT22;69766;51.476;5.704;2023-09-18T06:26:19;19.60;99.90
80426;DHT22;69766;51.476;5.704;2023-09-18T06:28:53;19.60;99.90
80426;DHT22;69766;51.476;5.704;2023-09-18T06:31:22;19.60;99.90
80426;DHT22;69766;51.476;5.704;2023-09-18T06:33:51;19.60;99.90
80426;DHT22;69766;51.476;5.704;2023-09-18T06:36:34;19.60;99.90
80426;DHT22;69766;51.476;5.704;2023-09-18T06:39:06;19.70;99.90
80426;DHT22;69766;51.476;5.704;2023-09-18T06:41:43;19.50;99.90
80426;DHT22;69766;51.476;5.704;2023-09-18T06:44:18;19.60;99.90
80426;DHT22;69766;51.476;5.704;2023-09-18T06:46:46;19.60;99.90
80426;DHT22;69766;51.476;5.704;2023-09-18T06:51:53;19.60;99.90
80426;DHT22;69766;51.476;5.704;2023-09-18T06:54:25;19.60;99.90
80426;DHT22;69766;51.476;5.704;2023-09-18T06:56:51;19.70;99.90
80426;DHT22;69766;51.476;5.704;2023-09-18T06:59:24;19.70;99.90
80426;DHT22;69766;51.476;5.704;2023-09-18T07:01:53;19.70;99.90
80426;DHT22;69766;51.476;5.704;2023-09-18T07:04:28;19.70;99.90
80426;DHT22;69766;51.476;5.704;2023-09-18T07:06:57;19.80;99.90
80426;DHT22;69766;51.476;5.704;2023-09-18T07:09:28;19.70;99.90
80426;DHT22;69766;51.476;5.704;2023-09-18T07:11:58;19.80;99.90
80426;DHT22;69766;51.476;5.704;2023-09-18T07:14:25;19.80;99.90
80426;DHT22;69766;51.476;5.704;2023-09-18T07:16:56;19.70;99.90
80426;DHT22;69766;51.476;5.704;2023-09-18T07:19:24;19.80;99.90
80426;DHT22;69766;51.476;5.704;2023-09-18T07:21:54;19.70;99.90
80426;DHT22;69766;51.476;5.704;2023-09-18T07:24:26;19.70;99.90
80426;DHT22;69766;51.476;5.704;2023-09-18T07:26:57;19.60;99.90
80426;DHT22;69766;51.476;5.704;2023-09-18T07:29:23;19.70;99.90
80426;DHT22;69766;51.476;5.704;2023-09-18T07:31:52;19.60;99.90
80426;DHT22;69766;51.476;5.704;2023-09-18T07:34:18;19.70;99.90
80426;DHT22;69766;51.476;5.704;2023-09-18T07:36:44;19.70;99.90
80426;DHT22;69766;51.476;5.704;2023-09-18T07:39:10;19.70;99.90
80426;DHT22;69766;51.476;5.704;2023-09-18T07:41:40;19.70;99.90
80426;DHT22;69766;51.476;5.704;2023-09-18T07:44:22;19.70;99.90
80426;DHT22;69766;51.476;5.704;2023-09-18T07:46:59;19.80;99.90
80426;DHT22;69766;51.476;5.704;2023-09-18T07:49:30;19.70;99.90
80426;DHT22;69766;51.476;5.704;2023-09-18T07:52:11;19.70;99.90
80426;DHT22;69766;51.476;5.704;2023-09-18T07:54:51;19.80;99.90
80426;DHT22;69766;51.476;5.704;2023-09-18T07:57:22;19.90;99.90
80426;DHT22;69766;51.476;5.704;2023-09-18T07:59:57;20.00;99.90
80426;DHT22;69766;51.476;5.704;2023-09-18T08:02:34;20.00;99.90
80426;DHT22;69766;51.476;5.704;2023-09-18T08:05:01;20.00;99.90
80426;DHT22;69766;51.476;5.704;2023-09-18T08:07:36;19.90;99.90
80426;DHT22;69766;51.476;5.704;2023-09-18T08:10:09;20.00;99.90
80426;DHT22;69766;51.476;5.704;2023-09-18T08:12:35;20.00;99.90
80426;DHT22;69766;51.476;5.704;2023-09-18T08:15:08;20.00;99.90
80426;DHT22;69766;51.476;5.704;2023-09-18T08:17:39;20.10;99.90
80426;DHT22;69766;51.476;5.704;2023-09-18T08:20:12;20.10;99.90
80426;DHT22;69766;51.476;5.704;2023-09-18T08:22:41;20.10;99.90
80426;DHT22;69766;51.476;5.704;2023-09-18T08:25:07;20.20;99.90
80426;DHT22;69766;51.476;5.704;2023-09-18T08:27:37;20.20;99.90
80426;DHT22;69766;51.476;5.704;2023-09-18T08:30:07;20.40;99.90
80426;DHT22;69766;51.476;5.704;2023-09-18T08:32:49;20.20;99.90
80426;DHT22;69766;51.476;5.704;2023-09-18T08:35:19;20.30;99.90
80426;DHT22;69766;51.476;5.704;2023-09-18T08:37:45;20.30;99.90
80426;DHT22;69766;51.476;5.704;2023-09-18T08:40:29;20.30;99.90
80426;DHT22;69766;51.476;5.704;2023-09-18T08:43:01;20.30;99.90
80426;DHT22;69766;51.476;5.704;2023-09-18T08:45:52;20.20;99.90
80426;DHT22;69766;51.476;5.704;2023-09-18T08:48:27;20.30;99.90
80426;DHT22;69766;51.476;5.704;2023-09-18T08:51:06;20.20;99.90
80426;DHT22;69766;51.476;5.704;2023-09-18T08:53:33;20.20;99.90
80426;DHT22;69766;51.476;5.704;2023-09-18T08:56:00;20.20;99.90
80426;DHT22;69766;51.476;5.704;2023-09-18T08:58:37;20.30;99.90
80426;DHT22;69766;51.476;5.704;2023-09-18T09:01:15;20.40;99.90
80426;DHT22;69766;51.476;5.704;2023-09-18T09:03:52;20.60;99.90
80426;DHT22;69766;51.476;5.704;2023-09-18T09:06:19;20.70;99.90
80426;DHT22;69766;51.476;5.704;2023-09-18T09:08:48;20.70;99.90
80426;DHT22;69766;51.476;5.704;2023-09-18T09:14:19;20.70;99.90
80426;DHT22;69766;51.476;5.704;2023-09-18T09:16:56;20.80;99.90
80426;DHT22;69766;51.476;5.704;2023-09-18T09:19:30;21.00;99.90
80426;DHT22;69766;51.476;5.704;2023-09-18T09:21:56;21.10;99.90
80426;DHT22;69766;51.476;5.704;2023-09-18T09:24:42;21.00;99.90
80426;DHT22;69766;51.476;5.704;2023-09-18T09:27:11;21.00;99.90
80426;DHT22;69766;51.476;5.704;2023-09-18T09:29:40;21.00;99.90
80426;DHT22;69766;51.476;5.704;2023-09-18T09:32:16;21.10;99.90
80426;DHT22;69766;51.476;5.704;2023-09-18T09:34:43;21.40;99.90
80426;DHT22;69766;51.476;5.704;2023-09-18T09:37:11;22.00;99.90
80426;DHT22;69766;51.476;5.704;2023-09-18T09:40:09;22.60;99.90
80426;DHT22;69766;51.476;5.704;2023-09-18T09:42:46;23.20;99.90
80426;DHT22;69766;51.476;5.704;2023-09-18T09:45:14;23.30;99.90
80426;DHT22;69766;51.476;5.704;2023-09-18T09:47:44;23.40;99.90
80426;DHT22;69766;51.476;5.704;2023-09-18T09:50:12;24.10;99.90
80426;DHT22;69766;51.476;5.704;2023-09-18T09:52:46;24.20;99.90
80426;DHT22;69766;51.476;5.704;2023-09-18T09:55:33;24.50;99.90
80426;DHT22;69766;51.476;5.704;2023-09-18T09:58:08;24.00;99.90
80426;DHT22;69766;51.476;5.704;2023-09-18T10:00:41;24.20;99.90
80426;DHT22;69766;51.476;5.704;2023-09-18T10:03:12;23.90;99.90
80426;DHT22;69766;51.476;5.704;2023-09-18T10:05:44;23.70;99.90
80426;DHT22;69766;51.476;5.704;2023-09-18T10:11:13;23.60;99.90
80426;DHT22;69766;51.476;5.704;2023-09-18T10:13:54;23.00;99.90
80426;DHT22;69766;51.476;5.704;2023-09-18T10:16:33;22.60;99.90
80426;DHT22;69766;51.476;5.704;2023-09-18T10:22:10;22.40;99.90
80426;DHT22;69766;51.476;5.704;2023-09-18T10:24:47;22.80;99.90
80426;DHT22;69766;51.476;5.704;2023-09-18T10:27:48;22.70;99.90
80426;DHT22;69766;51.476;5.704;2023-09-18T10:30:21;22.50;99.90
80426;DHT22;69766;51.476;5.704;2023-09-18T10:33:07;22.30;99.90
80426;DHT22;69766;51.476;5.704;2023-09-18T10:35:36;22.30;99.90
80426;DHT22;69766;51.476;5.704;2023-09-18T10:38:05;22.30;99.90
80426;DHT22;69766;51.476;5.704;2023-09-18T10:40:33;22.30;99.90
80426;DHT22;69766;51.476;5.704;2023-09-18T10:43:02;22.60;99.90
80426;DHT22;69766;51.476;5.704;2023-09-18T10:45:32;22.90;99.90
80426;DHT22;69766;51.476;5.704;2023-09-18T10:48:01;23.00;99.90
80426;DHT22;69766;51.476;5.704;2023-09-18T10:50:36;22.90;99.90
80426;DHT22;69766;51.476;5.704;2023-09-18T10:53:02;23.10;99.90
80426;DHT22;69766;51.476;5.704;2023-09-18T10:55:28;23.30;99.90
80426;DHT22;69766;51.476;5.704;2023-09-18T10:57:55;23.50;99.90
80426;DHT22;69766;51.476;5.704;2023-09-18T11:00:28;23.50;99.90
80426;DHT22;69766;51.476;5.704;2023-09-18T11:03:15;23.40;99.90
80426;DHT22;69766;51.476;5.704;2023-09-18T11:05:47;23.50;99.90
80426;DHT22;69766;51.476;5.704;2023-09-18T11:08:26;23.40;99.90
80426;DHT22;69766;51.476;5.704;2023-09-18T11:11:10;23.40;99.90
80426;DHT22;69766;51.476;5.704;2023-09-18T11:13:46;23.90;99.90
80426;DHT22;69766;51.476;5.704;2023-09-18T11:19:07;23.90;99.90
80426;DHT22;69766;51.476;5.704;2023-09-18T11:21:34;24.00;99.90
80426;DHT22;69766;51.476;5.704;2023-09-18T11:24:05;23.70;99.90
80426;DHT22;69766;51.476;5.704;2023-09-18T11:26:33;23.40;99.90
80426;DHT22;69766;51.476;5.704;2023-09-18T11:29:05;23.60;99.90
80426;DHT22;69766;51.476;5.704;2023-09-18T11:31:44;23.50;99.90
80426;DHT22;69766;51.476;5.704;2023-09-18T11:36:45;23.20;99.90
80426;DHT22;69766;51.476;5.704;2023-09-18T11:39:12;22.90;99.90
80426;DHT22;69766;51.476;5.704;2023-09-18T11:41:39;23.10;99.90
80426;DHT22;69766;51.476;5.704;2023-09-18T11:46:55;22.90;99.90
80426;DHT22;69766;51.476;5.704;2023-09-18T11:49:26;22.80;99.90
80426;DHT22;69766;51.476;5.704;2023-09-18T11:51:55;22.70;99.90
80426;DHT22;69766;51.476;5.704;2023-09-18T11:54:46;22.60;99.90
80426;DHT22;69766;51.476;5.704;2023-09-18T11:57:15;23.20;99.90
80426;DHT22;69766;51.476;5.704;2023-09-18T11:59:46;22.90;99.90
80426;DHT22;69766;51.476;5.704;2023-09-18T12:02:13;22.80;99.90
80426;DHT22;69766;51.476;5.704;2023-09-18T12:04:48;22.50;99.90
80426;DHT22;69766;51.476;5.704;2023-09-18T12:07:16;22.50;99.90
80426;DHT22;69766;51.476;5.704;2023-09-18T12:09:47;23.80;99.90
80426;DHT22;69766;51.476;5.704;2023-09-18T12:12:15;24.00;99.90
80426;DHT22;69766;51.476;5.704;2023-09-18T12:14:44;24.50;99.90
80426;DHT22;69766;51.476;5.704;2023-09-18T12:17:15;25.70;99.90
80426;DHT22;69766;51.476;5.704;2023-09-18T12:19:56;26.30;99.90
80426;DHT22;69766;51.476;5.704;2023-09-18T12:22:30;25.90;99.90
80426;DHT22;69766;51.476;5.704;2023-09-18T12:25:13;26.30;99.90
80426;DHT22;69766;51.476;5.704;2023-09-18T12:27:43;26.80;99.90
80426;DHT22;69766;51.476;5.704;2023-09-18T12:30:11;27.20;99.90
80426;DHT22;69766;51.476;5.704;2023-09-18T12:32:47;27.50;99.90
80426;DHT22;69766;51.476;5.704;2023-09-18T12:35:14;27.50;99.90
80426;DHT22;69766;51.476;5.704;2023-09-18T12:37:45;27.30;99.90
80426;DHT22;69766;51.476;5.704;2023-09-18T12:40:27;27.50;99.90
80426;DHT22;69766;51.476;5.704;2023-09-18T12:42:55;27.20;99.90
80426;DHT22;69766;51.476;5.704;2023-09-18T12:45:22;28.00;99.90
80426;DHT22;69766;51.476;5.704;2023-09-18T12:47:51;28.50;99.90
80426;DHT22;69766;51.476;5.704;2023-09-18T12:50:20;28.50;98.70
80426;DHT22;69766;51.476;5.704;2023-09-18T12:52:46;28.40;98.00
80426;DHT22;69766;51.476;5.704;2023-09-18T12:55:26;27.60;98.60
80426;DHT22;69766;51.476;5.704;2023-09-18T12:57:55;26.10;99.90
80426;DHT22;69766;51.476;5.704;2023-09-18T13:00:26;25.80;99.90
80426;DHT22;69766;51.476;5.704;2023-09-18T13:02:53;26.90;99.90
80426;DHT22;69766;51.476;5.704;2023-09-18T13:05:24;28.10;99.20
80426;DHT22;69766;51.476;5.704;2023-09-18T13:08:02;28.00;97.00
80426;DHT22;69766;51.476;5.704;2023-09-18T13:10:40;25.90;99.60
80426;DHT22;69766;51.476;5.704;2023-09-18T13:13:43;24.90;99.90
80426;DHT22;69766;51.476;5.704;2023-09-18T13:16:10;24.70;99.90
80426;DHT22;69766;51.476;5.704;2023-09-18T13:18:39;25.00;99.90
80426;DHT22;69766;51.476;5.704;2023-09-18T13:21:12;25.70;99.90
80426;DHT22;69766;51.476;5.704;2023-09-18T13:23:39;26.00;99.90
80426;DHT22;69766;51.476;5.704;2023-09-18T13:26:06;26.90;99.90
80426;DHT22;69766;51.476;5.704;2023-09-18T13:28:38;28.10;98.70
80426;DHT22;69766;51.476;5.704;2023-09-18T13:31:08;28.30;97.70
80426;DHT22;69766;51.476;5.704;2023-09-18T13:34:00;27.70;97.70
80426;DHT22;69766;51.476;5.704;2023-09-18T13:36:28;27.30;97.20
80426;DHT22;69766;51.476;5.704;2023-09-18T13:38:56;27.50;97.60
80426;DHT22;69766;51.476;5.704;2023-09-18T13:41:22;28.00;97.20
80426;DHT22;69766;51.476;5.704;2023-09-18T13:43:47;27.90;96.80
80426;DHT22;69766;51.476;5.704;2023-09-18T13:46:14;28.70;96.20
80426;DHT22;69766;51.476;5.704;2023-09-18T13:48:40;28.20;96.60
80426;DHT22;69766;51.476;5.704;2023-09-18T13:51:11;28.10;97.10
80426;DHT22;69766;51.476;5.704;2023-09-18T13:53:37;27.40;96.60
80426;DHT22;69766;51.476;5.704;2023-09-18T13:56:06;27.20;97.90
80426;DHT22;69766;51.476;5.704;2023-09-18T13:58:35;27.00;99.50
80426;DHT22;69766;51.476;5.704;2023-09-18T14:01:06;26.80;98.90
80426;DHT22;69766;51.476;5.704;2023-09-18T14:03:33;27.40;96.30
80426;DHT22;69766;51.476;5.704;2023-09-18T14:05:59;27.50;96.30
80426;DHT22;69766;51.476;5.704;2023-09-18T14:08:24;27.20;97.60
80426;DHT22;69766;51.476;5.704;2023-09-18T14:10:50;26.50;98.60
80426;DHT22;69766;51.476;5.704;2023-09-18T14:13:16;27.00;97.40
80426;DHT22;69766;51.476;5.704;2023-09-18T14:15:45;27.30;96.60
80426;DHT22;69766;51.476;5.704;2023-09-18T14:18:10;26.20;98.50
80426;DHT22;69766;51.476;5.704;2023-09-18T14:20:38;25.40;99.90
80426;DHT22;69766;51.476;5.704;2023-09-18T14:23:07;25.80;99.90
80426;DHT22;69766;51.476;5.704;2023-09-18T14:25:38;26.70;97.10
80426;DHT22;69766;51.476;5.704;2023-09-18T14:28:12;26.70;96.50
80426;DHT22;69766;51.476;5.704;2023-09-18T14:30:39;26.50;97.00
80426;DHT22;69766;51.476;5.704;2023-09-18T14:33:07;26.90;96.50
80426;DHT22;69766;51.476;5.704;2023-09-18T14:35:34;27.60;95.00
80426;DHT22;69766;51.476;5.704;2023-09-18T14:38:02;28.00;94.20
80426;DHT22;69766;51.476;5.704;2023-09-18T14:40:29;27.90;93.50
80426;DHT22;69766;51.476;5.704;2023-09-18T14:42:55;28.10;93.30
80426;DHT22;69766;51.476;5.704;2023-09-18T14:45:21;27.40;94.00
80426;DHT22;69766;51.476;5.704;2023-09-18T14:47:46;27.90;93.50
80426;DHT22;69766;51.476;5.704;2023-09-18T14:50:15;27.60;93.70
80426;DHT22;69766;51.476;5.704;2023-09-18T14:52:43;28.00;93.10
80426;DHT22;69766;51.476;5.704;2023-09-18T14:55:09;27.50;92.70
80426;DHT22;69766;51.476;5.704;2023-09-18T14:57:35;27.10;93.70
80426;DHT22;69766;51.476;5.704;2023-09-18T15:00:01;27.70;93.50
80426;DHT22;69766;51.476;5.704;2023-09-18T15:02:26;27.80;92.80
80426;DHT22;69766;51.476;5.704;2023-09-18T15:04:56;27.80;92.80
80426;DHT22;69766;51.476;5.704;2023-09-18T15:07:28;27.60;92.60
80426;DHT22;69766;51.476;5.704;2023-09-18T15:09:59;26.40;93.90
80426;DHT22;69766;51.476;5.704;2023-09-18T15:12:25;25.10;96.00
80426;DHT22;69766;51.476;5.704;2023-09-18T15:14:53;24.50;96.00
80426;DHT22;69766;51.476;5.704;2023-09-18T15:17:19;24.20;96.30
80426;DHT22;69766;51.476;5.704;2023-09-18T15:19:56;23.90;96.70
80426;DHT22;69766;51.476;5.704;2023-09-18T15:22:25;23.80;96.90
80426;DHT22;69766;51.476;5.704;2023-09-18T15:24:53;23.70;97.10
80426;DHT22;69766;51.476;5.704;2023-09-18T15:27:19;23.80;97.30
80426;DHT22;69766;51.476;5.704;2023-09-18T15:29:45;23.80;97.20
80426;DHT22;69766;51.476;5.704;2023-09-18T15:35:19;23.70;97.70
80426;DHT22;69766;51.476;5.704;2023-09-18T15:37:48;23.70;97.20
80426;DHT22;69766;51.476;5.704;2023-09-18T15:40:15;23.60;98.60
80426;DHT22;69766;51.476;5.704;2023-09-18T15:42:45;23.50;97.80
80426;DHT22;69766;51.476;5.704;2023-09-18T15:45:11;23.40;98.10
80426;DHT22;69766;51.476;5.704;2023-09-18T15:47:40;23.30;98.00
80426;DHT22;69766;51.476;5.704;2023-09-18T15:50:07;23.20;98.50
80426;DHT22;69766;51.476;5.704;2023-09-18T15:52:33;23.10;98.10
80426;DHT22;69766;51.476;5.704;2023-09-18T15:54:59;23.00;98.50
80426;DHT22;69766;51.476;5.704;2023-09-18T15:57:32;23.00;98.60
80426;DHT22;69766;51.476;5.704;2023-09-18T15:59:59;22.90;99.90
80426;DHT22;69766;51.476;5.704;2023-09-18T16:02:26;21.60;99.90
80426;DHT22;69766;51.476;5.704;2023-09-18T16:04:52;19.50;99.90
80426;DHT22;69766;51.476;5.704;2023-09-18T16:07:18;18.40;99.90
80426;DHT22;69766;51.476;5.704;2023-09-18T16:09:44;17.80;99.90
80426;DHT22;69766;51.476;5.704;2023-09-18T16:12:10;17.50;99.90
80426;DHT22;69766;51.476;5.704;2023-09-18T16:14:36;17.20;99.90
80426;DHT22;69766;51.476;5.704;2023-09-18T16:17:02;17.10;99.90